createdAt,value
2023-11-12T00:00:41.332Z,5.32
2023-11-12T00:03:08.527Z,4.72
2023-11-12T00:05:35.886Z,5.10
2023-11-12T00:08:03.216Z,4.93
2023-11-12T00:10:30.246Z,4.13
2023-11-12T00:12:57.241Z,6.30
2023-11-12T00:15:24.283Z,4.38
2023-11-12T00:17:51.195Z,6.50
2023-11-12T00:20:19.285Z,5.60
2023-11-12T00:22:46.704Z,4.95
2023-11-12T00:25:15.154Z,5.65
2023-11-12T00:27:42.566Z,5.00
2023-11-12T00:30:10.718Z,4.55
2023-11-12T00:32:38.342Z,4.47
2023-11-12T00:35:06.918Z,5.80
2023-11-12T00:37:34.850Z,4.47
2023-11-12T00:40:01.760Z,3.53
2023-11-12T00:42:28.671Z,4.32
2023-11-12T00:44:57.132Z,4.47
2023-11-12T00:47:24.243Z,6.75
2023-11-12T00:49:51.332Z,5.15
2023-11-12T00:52:19.183Z,4.60
2023-11-12T00:54:46.342Z,4.25
2023-11-12T00:57:13.217Z,5.22
2023-11-12T00:59:40.343Z,3.92
2023-11-12T01:02:07.389Z,4.72
2023-11-12T01:04:34.363Z,4.43
2023-11-12T01:07:01.737Z,4.68
2023-11-12T01:09:29.847Z,6.53
2023-11-12T01:11:56.726Z,6.65
2023-11-12T01:14:24.409Z,4.70
2023-11-12T01:16:51.358Z,5.60
2023-11-12T01:19:18.309Z,5.53
2023-11-12T01:21:45.366Z,4.05
2023-11-12T01:24:12.483Z,5.55
2023-11-12T01:26:39.934Z,11.30
2023-11-12T01:29:07.134Z,4.18
2023-11-12T01:31:34.019Z,4.43
2023-11-12T01:34:01.629Z,4.10
2023-11-12T01:36:28.910Z,6.28
2023-11-12T01:38:56.012Z,7.10
2023-11-12T01:41:22.933Z,5.85
2023-11-12T01:43:50.209Z,6.18
2023-11-12T01:46:20.301Z,5.07
2023-11-12T01:48:49.111Z,5.28
2023-11-12T01:51:17.422Z,6.15
2023-11-12T01:53:44.624Z,6.85
2023-11-12T01:56:13.904Z,6.07
2023-11-12T01:58:41.769Z,6.18
2023-11-12T02:01:08.778Z,6.22
2023-11-12T02:03:37.536Z,6.68
2023-11-12T02:06:08.250Z,5.43
2023-11-12T02:08:37.260Z,6.82
2023-11-12T02:11:09.219Z,5.87
2023-11-12T02:13:43.593Z,6.60
2023-11-12T02:16:11.750Z,7.43
2023-11-12T02:18:38.837Z,5.65
2023-11-12T02:21:06.026Z,4.72
2023-11-12T02:23:38.048Z,5.35
2023-11-12T02:26:05.364Z,5.13
2023-11-12T02:28:32.261Z,7.45
2023-11-12T02:30:59.897Z,6.70
2023-11-12T02:33:29.213Z,7.45
2023-11-12T02:35:57.352Z,6.80
2023-11-12T02:38:25.392Z,9.90
2023-11-12T02:40:53.063Z,6.20
2023-11-12T02:43:21.273Z,9.95
2023-11-12T02:45:49.325Z,6.68
2023-11-12T02:48:16.439Z,5.65
2023-11-12T02:50:44.746Z,5.35
2023-11-12T02:53:13.592Z,6.88
2023-11-12T02:55:40.791Z,11.85
2023-11-12T02:58:07.756Z,5.10
2023-11-12T03:00:35.157Z,5.93
2023-11-12T03:03:03.315Z,5.57
2023-11-12T03:05:32.268Z,4.68
2023-11-12T03:07:59.831Z,4.90
2023-11-12T03:10:27.240Z,7.28
2023-11-12T03:12:55.538Z,4.68
2023-11-12T03:15:25.711Z,5.15
2023-11-12T03:17:53.116Z,5.38
2023-11-12T03:20:20.072Z,4.60
2023-11-12T03:22:48.132Z,5.10
2023-11-12T03:25:15.215Z,7.35
2023-11-12T03:27:42.458Z,4.72
2023-11-12T03:30:14.732Z,3.97
2023-11-12T03:32:41.886Z,6.50
2023-11-12T03:35:09.871Z,6.50
2023-11-12T03:37:36.842Z,5.20
2023-11-12T03:40:05.810Z,7.00
2023-11-12T03:42:33.334Z,5.70
2023-11-12T03:45:00.500Z,4.57
2023-11-12T03:47:27.533Z,7.00
2023-11-12T03:49:54.537Z,5.38
2023-11-12T03:52:21.596Z,4.97
2023-11-12T03:54:48.489Z,5.35
2023-11-12T03:57:15.988Z,4.57
2023-11-12T03:59:43.223Z,6.20
2023-11-12T04:02:10.385Z,5.18
2023-11-12T04:04:37.591Z,4.90
2023-11-12T04:07:04.973Z,4.65
2023-11-12T04:09:32.126Z,6.22
2023-11-12T04:11:59.270Z,5.18
2023-11-12T04:14:26.559Z,11.70
2023-11-12T04:16:53.438Z,5.70
2023-11-12T04:19:20.521Z,9.00
2023-11-12T04:21:49.046Z,5.57
2023-11-12T04:24:16.237Z,5.57
2023-11-12T04:26:43.538Z,5.57
2023-11-12T04:29:11.043Z,5.60
2023-11-12T04:31:38.152Z,7.38
2023-11-12T04:34:05.482Z,6.43
2023-11-12T04:36:36.999Z,7.55
2023-11-12T04:39:05.138Z,6.93
2023-11-12T04:41:32.165Z,7.15
2023-11-12T04:44:00.916Z,7.00
2023-11-12T04:46:29.312Z,9.35
2023-11-12T04:48:56.475Z,6.90
2023-11-12T04:51:23.753Z,7.28
2023-11-12T04:53:50.720Z,5.88
2023-11-12T04:56:17.757Z,6.55
2023-11-12T04:58:44.752Z,6.10
2023-11-12T05:01:11.609Z,7.43
2023-11-12T05:03:39.148Z,6.93
2023-11-12T05:06:06.888Z,7.00
2023-11-12T05:08:34.206Z,7.32
2023-11-12T05:11:01.236Z,7.03
2023-11-12T05:13:28.778Z,7.55
2023-11-12T05:15:55.893Z,6.93
2023-11-12T05:18:23.032Z,7.53
2023-11-12T05:20:50.379Z,8.55
2023-11-12T05:23:17.957Z,7.22
2023-11-12T05:25:46.700Z,8.82
2023-11-12T05:28:14.016Z,7.63
2023-11-12T05:30:41.109Z,8.20
2023-11-12T05:33:08.605Z,9.70
2023-11-12T05:35:35.607Z,6.82
2023-11-12T05:38:02.472Z,9.15
2023-11-12T05:40:30.829Z,10.25
2023-11-12T05:42:59.103Z,10.68
2023-11-12T05:45:26.148Z,8.00
2023-11-12T05:47:53.300Z,8.93
2023-11-12T05:50:20.509Z,7.35
2023-11-12T05:52:47.426Z,7.70
2023-11-12T05:55:15.139Z,12.45
2023-11-12T05:57:42.901Z,9.30
2023-11-12T06:00:13.909Z,9.32
2023-11-12T06:02:40.972Z,9.70
2023-11-12T06:05:08.770Z,10.68
2023-11-12T06:07:35.718Z,9.55
2023-11-12T06:10:03.076Z,12.77
2023-11-12T06:12:30.496Z,18.83
2023-11-12T06:15:11.536Z,16.70
2023-11-12T06:17:39.770Z,14.23
2023-11-12T06:20:08.372Z,11.95
2023-11-12T06:22:35.320Z,11.50
2023-11-12T06:25:02.425Z,9.50
2023-11-12T06:27:29.361Z,10.02
2023-11-12T06:29:56.287Z,11.80
2023-11-12T06:32:23.894Z,12.98
2023-11-12T06:34:50.808Z,15.45
2023-11-12T06:37:17.704Z,19.13
2023-11-12T06:39:45.252Z,14.88
2023-11-12T06:42:12.239Z,13.65
2023-11-12T06:44:40.272Z,17.30
2023-11-12T06:47:08.115Z,19.00
2023-11-12T06:49:35.054Z,22.23
2023-11-12T06:52:03.062Z,18.83
2023-11-12T06:54:30.220Z,16.02
2023-11-12T06:56:57.598Z,13.45
2023-11-12T06:59:24.610Z,12.95
2023-11-12T07:01:51.848Z,16.58
2023-11-12T07:04:19.266Z,12.27
2023-11-12T07:07:01.292Z,20.77
2023-11-12T07:09:35.447Z,13.98
2023-11-12T07:12:02.358Z,16.20
2023-11-12T07:14:29.221Z,16.13
2023-11-12T07:16:56.550Z,16.52
2023-11-12T07:19:24.139Z,12.57
2023-11-12T07:21:51.321Z,11.73
2023-11-12T07:24:19.042Z,11.13
2023-11-12T07:26:45.993Z,12.18
2023-11-12T07:29:16.391Z,12.05
2023-11-12T07:31:44.561Z,10.48
2023-11-12T07:34:11.587Z,9.55
2023-11-12T07:36:38.893Z,9.80
2023-11-12T07:39:06.266Z,9.65
2023-11-12T07:41:34.368Z,14.07
2023-11-12T07:44:01.569Z,10.95
2023-11-12T07:46:28.677Z,10.70
2023-11-12T07:48:55.688Z,11.20
2023-11-12T07:51:23.632Z,9.52
2023-11-12T07:53:52.475Z,11.30
2023-11-12T07:56:19.414Z,12.85
2023-11-12T07:58:47.489Z,10.38
2023-11-12T08:01:14.717Z,7.75
2023-11-12T08:03:41.697Z,9.20
2023-11-12T08:06:10.827Z,8.38
2023-11-12T08:08:38.483Z,10.90
2023-11-12T08:11:05.510Z,9.15
2023-11-12T08:13:32.441Z,9.80
2023-11-12T08:15:59.701Z,9.52
2023-11-12T08:18:27.290Z,8.73
2023-11-12T08:20:56.338Z,8.57
2023-11-12T08:23:23.483Z,10.50
2023-11-12T08:25:50.590Z,8.45
2023-11-12T08:28:22.758Z,10.05
2023-11-12T08:30:50.273Z,8.25
2023-11-12T08:33:17.252Z,5.90
2023-11-12T08:35:44.314Z,7.85
2023-11-12T08:38:11.505Z,5.43
2023-11-12T08:40:43.155Z,9.70
2023-11-12T08:43:14.514Z,5.15
2023-11-12T08:45:41.488Z,5.10
2023-11-12T08:48:08.544Z,5.20
2023-11-12T08:50:35.583Z,5.95
2023-11-12T08:53:03.313Z,4.00
2023-11-12T08:55:30.484Z,8.70
2023-11-12T08:57:57.656Z,5.68
2023-11-12T09:00:24.992Z,5.07
2023-11-12T09:02:52.607Z,4.47
2023-11-12T09:05:20.182Z,3.78
2023-11-12T09:07:48.168Z,5.45
2023-11-12T09:10:15.678Z,4.13
2023-11-12T09:12:42.552Z,6.55
2023-11-12T09:15:11.300Z,5.13
2023-11-12T09:17:38.801Z,6.40
2023-11-12T09:20:07.280Z,4.55
2023-11-12T09:22:34.845Z,5.35
2023-11-12T09:25:09.487Z,5.50
2023-11-12T09:27:40.165Z,6.95
2023-11-12T09:30:09.924Z,5.18
2023-11-12T09:32:40.253Z,5.63
2023-11-12T09:35:09.841Z,4.20
2023-11-12T09:37:36.940Z,4.28
2023-11-12T09:40:09.331Z,3.85
2023-11-12T09:42:39.932Z,8.68
2023-11-12T09:45:09.426Z,4.50
2023-11-12T09:47:52.829Z,4.38
2023-11-12T09:50:22.051Z,6.10
2023-11-12T09:52:51.005Z,4.68
2023-11-12T09:55:19.439Z,4.77
2023-11-12T09:57:47.493Z,4.88
2023-11-12T10:00:15.428Z,9.25
2023-11-12T10:02:42.382Z,4.70
2023-11-12T10:05:12.761Z,6.90
2023-11-12T10:07:40.004Z,4.10
2023-11-12T10:10:28.879Z,5.30
2023-11-12T10:12:56.608Z,4.10
2023-11-12T10:15:27.300Z,4.90
2023-11-12T10:17:58.494Z,5.50
2023-11-12T10:20:29.248Z,5.95
2023-11-12T10:22:56.423Z,4.53
2023-11-12T10:25:44.433Z,4.57
2023-11-12T10:28:12.980Z,4.93
2023-11-12T10:30:41.173Z,4.43
2023-11-12T10:33:21.993Z,5.43
2023-11-12T10:35:49.000Z,4.95
2023-11-12T10:38:19.851Z,5.57
2023-11-12T10:41:04.783Z,3.53
2023-11-12T10:43:32.520Z,4.45
2023-11-12T10:46:02.013Z,4.07
2023-11-12T10:48:36.854Z,4.60
2023-11-12T10:51:08.475Z,5.50
2023-11-12T10:53:39.031Z,4.07
2023-11-12T10:56:11.658Z,5.90
2023-11-12T10:58:39.045Z,5.18
2023-11-12T11:01:08.903Z,3.95
2023-11-12T11:03:36.315Z,3.55
2023-11-12T11:06:05.181Z,5.13
2023-11-12T11:08:32.911Z,6.25
2023-11-12T11:11:02.152Z,5.63
2023-11-12T11:13:29.640Z,4.25
2023-11-12T11:15:58.290Z,4.20
2023-11-12T11:18:34.508Z,4.45
2023-11-12T11:21:04.337Z,3.92
2023-11-12T11:26:40.867Z,7.90
2023-11-12T11:29:17.141Z,5.45
2023-11-12T11:31:56.266Z,6.70
2023-11-12T11:34:40.673Z,3.78
2023-11-12T11:37:09.130Z,4.25
2023-11-12T11:39:37.016Z,6.22
2023-11-12T11:42:08.259Z,4.05
2023-11-12T11:44:47.340Z,2.88
2023-11-12T11:47:17.649Z,4.10
2023-11-12T11:50:00.329Z,6.70
2023-11-12T11:52:29.268Z,3.72
2023-11-12T11:55:09.921Z,4.43
2023-11-12T11:57:47.894Z,3.40
2023-11-12T12:00:18.148Z,4.35
2023-11-12T12:02:46.885Z,5.78
2023-11-12T12:05:16.807Z,3.88
2023-11-12T12:10:28.331Z,3.13
2023-11-12T12:12:55.892Z,4.43
2023-11-12T12:15:23.046Z,2.80
2023-11-12T12:17:50.084Z,3.35
2023-11-12T12:20:17.463Z,3.72
2023-11-12T12:22:44.688Z,2.92
2023-11-12T12:25:12.114Z,3.80
2023-11-12T12:27:39.302Z,4.35
2023-11-12T12:30:09.438Z,4.03
2023-11-12T12:32:39.148Z,3.45
2023-11-12T12:37:37.011Z,3.45
2023-11-12T12:40:18.701Z,3.50
2023-11-12T12:42:45.863Z,2.60
2023-11-12T12:45:20.609Z,3.67
2023-11-12T12:47:47.640Z,3.13
2023-11-12T12:50:27.553Z,4.10
2023-11-12T12:53:15.185Z,3.55
2023-11-12T12:55:45.289Z,3.13
2023-11-12T12:58:13.079Z,3.28
2023-11-12T13:00:42.401Z,2.97
2023-11-12T13:03:23.011Z,2.75
2023-11-12T13:05:51.507Z,2.75
2023-11-12T13:08:20.841Z,3.67
2023-11-12T13:10:50.014Z,5.57
2023-11-12T13:13:20.538Z,5.38
2023-11-12T13:15:51.038Z,3.55
2023-11-12T13:18:19.335Z,4.13
2023-11-12T13:20:47.019Z,6.90
2023-11-12T13:23:14.168Z,4.05
2023-11-12T13:25:43.487Z,3.58
2023-11-12T13:28:13.350Z,6.05
2023-11-12T13:30:40.969Z,3.70
2023-11-12T13:33:09.216Z,3.67
2023-11-12T13:35:36.541Z,3.05
2023-11-12T13:38:03.777Z,8.15
2023-11-12T13:40:31.994Z,3.63
2023-11-12T13:42:59.046Z,3.30
2023-11-12T13:45:26.594Z,4.53
2023-11-12T13:47:55.822Z,5.85
2023-11-12T13:50:26.372Z,3.97
2023-11-12T13:53:00.161Z,6.88
2023-11-12T13:55:30.633Z,6.75
2023-11-12T13:58:01.480Z,5.65
2023-11-12T14:00:32.096Z,5.15
2023-11-12T14:03:02.554Z,5.03
2023-11-12T14:05:29.686Z,4.80
2023-11-12T14:07:57.710Z,8.02
2023-11-12T14:10:26.556Z,16.00
2023-11-12T14:12:54.268Z,7.70
2023-11-12T14:15:23.685Z,5.40
2023-11-12T14:17:50.945Z,8.38
2023-11-12T14:20:23.883Z,8.05
2023-11-12T14:22:52.498Z,7.60
2023-11-12T14:25:22.999Z,94.35
2023-11-12T14:27:51.143Z,30.65
2023-11-12T14:30:20.209Z,13.38
2023-11-12T14:32:47.755Z,56.72
2023-11-12T14:35:17.697Z,21.98
2023-11-12T14:40:16.356Z,23.85
2023-11-12T14:42:43.751Z,22.98
2023-11-12T14:45:21.762Z,27.33
2023-11-12T14:47:56.151Z,97.70
2023-11-12T14:50:23.358Z,102.47
2023-11-12T14:52:52.381Z,111.60
2023-11-12T14:55:24.896Z,89.43
2023-11-12T14:57:56.633Z,70.03
2023-11-12T15:00:29.949Z,66.90
2023-11-12T15:03:01.921Z,51.70
2023-11-12T15:05:29.942Z,45.67
2023-11-12T15:07:57.192Z,45.63
2023-11-12T15:10:24.670Z,44.05
2023-11-12T15:12:52.446Z,66.50
2023-11-12T15:15:21.199Z,63.78
2023-11-12T15:17:49.040Z,57.10
2023-11-12T15:20:16.090Z,43.75
2023-11-12T15:22:45.605Z,43.53
2023-11-12T15:25:16.526Z,37.50
2023-11-12T15:27:47.657Z,37.72
2023-11-12T15:30:15.240Z,40.42
2023-11-12T15:32:46.591Z,40.00
2023-11-12T15:35:15.360Z,37.97
2023-11-12T15:37:42.801Z,40.60
2023-11-12T15:40:22.153Z,77.32
2023-11-12T15:42:51.283Z,73.07
2023-11-12T15:45:20.425Z,71.68
2023-11-12T15:47:48.733Z,93.43
2023-11-12T15:50:18.078Z,149.43
2023-11-12T15:52:46.105Z,172.85
2023-11-12T15:55:14.238Z,175.85
2023-11-12T15:57:42.844Z,155.32
2023-11-12T16:00:15.783Z,59.53
2023-11-12T16:02:44.387Z,53.22
2023-11-12T16:05:12.368Z,63.63
2023-11-12T16:07:41.920Z,102.63
2023-11-12T16:10:12.381Z,106.40
2023-11-12T16:12:40.224Z,123.30
2023-11-12T16:15:13.609Z,112.60
2023-11-12T16:17:42.013Z,105.45
2023-11-12T16:20:14.086Z,145.05
2023-11-12T16:22:41.503Z,228.25
2023-11-12T16:25:11.877Z,163.63
2023-11-12T16:27:42.148Z,231.15
2023-11-12T16:30:10.146Z,138.75
2023-11-12T16:32:39.824Z,133.50
2023-11-12T16:35:07.731Z,115.43
2023-11-12T16:37:34.802Z,89.63
2023-11-12T16:40:02.424Z,118.95
2023-11-12T16:42:29.972Z,109.45
2023-11-12T16:44:58.096Z,95.43
2023-11-12T16:47:25.309Z,83.38
2023-11-12T16:49:55.200Z,95.50
2023-11-12T16:54:49.200Z,100.38
2023-11-12T16:57:16.128Z,87.57
2023-11-12T16:59:43.647Z,109.57
2023-11-12T17:02:12.379Z,104.60
2023-11-12T17:04:40.021Z,99.35
2023-11-12T17:07:12.589Z,87.93
2023-11-12T17:09:42.382Z,95.43
2023-11-12T17:12:09.429Z,112.30
2023-11-12T17:14:37.296Z,105.68
2023-11-12T17:17:04.527Z,88.65
2023-11-12T17:19:31.905Z,89.82
2023-11-12T17:21:59.420Z,93.45
2023-11-12T17:24:26.282Z,103.57
2023-11-12T17:26:53.394Z,94.80
2023-11-12T17:29:22.554Z,93.57
2023-11-12T17:31:51.915Z,94.80
2023-11-12T17:34:20.342Z,95.03
2023-11-12T17:36:48.168Z,88.25
2023-11-12T17:39:17.612Z,95.47
2023-11-12T17:41:48.998Z,111.82
2023-11-12T17:44:16.929Z,116.57
2023-11-12T17:46:46.373Z,112.07
2023-11-12T17:49:14.279Z,138.63
2023-11-12T17:51:42.871Z,107.95
2023-11-12T17:54:10.099Z,120.78
2023-11-12T17:56:37.491Z,112.78
2023-11-12T17:59:04.657Z,113.72
2023-11-12T18:01:31.637Z,114.32
2023-11-12T18:04:00.857Z,108.88
2023-11-12T18:06:28.383Z,108.68
2023-11-12T18:08:57.055Z,112.07
2023-11-12T18:11:24.257Z,112.07
2023-11-12T18:13:51.607Z,108.28
2023-11-12T18:16:21.524Z,118.75
2023-11-12T18:21:16.848Z,120.93
2023-11-12T18:23:44.378Z,157.32
2023-11-12T18:26:11.399Z,253.68
2023-11-12T18:28:38.992Z,220.75
2023-11-12T18:31:07.076Z,189.80
2023-11-12T18:33:34.518Z,175.52
2023-11-12T18:36:01.505Z,134.40
2023-11-12T18:38:28.969Z,124.60
2023-11-12T18:40:56.203Z,98.93
2023-11-12T18:43:23.893Z,156.88
2023-11-12T18:45:54.934Z,130.98
2023-11-12T18:48:22.388Z,113.78
2023-11-12T18:50:52.061Z,100.13
2023-11-12T18:53:19.792Z,115.35
2023-11-12T18:55:46.809Z,127.63
2023-11-12T18:58:18.103Z,123.80
2023-11-12T19:00:46.017Z,139.32
2023-11-12T19:03:13.148Z,131.05
2023-11-12T19:05:40.202Z,175.10
2023-11-12T19:08:10.754Z,196.25
2023-11-12T19:10:38.735Z,201.07
2023-11-12T19:13:06.041Z,214.60
2023-11-12T19:15:33.062Z,208.35
2023-11-12T19:18:00.429Z,186.73
2023-11-12T19:20:27.720Z,185.30
2023-11-12T19:22:55.125Z,168.63
2023-11-12T19:25:22.273Z,178.10
2023-11-12T19:27:49.334Z,175.80
2023-11-12T19:30:17.306Z,167.77
2023-11-12T19:32:46.153Z,182.02
2023-11-12T19:35:17.116Z,148.90
2023-11-12T19:37:45.659Z,100.95
2023-11-12T19:40:18.290Z,91.25
2023-11-12T19:42:48.674Z,129.65
2023-11-12T19:45:17.921Z,169.35
2023-11-12T19:47:44.901Z,215.30
2023-11-12T19:50:12.925Z,245.52
2023-11-12T19:52:40.262Z,202.30
2023-11-12T19:55:12.893Z,183.50
2023-11-12T19:57:41.682Z,157.98
2023-11-12T20:00:12.129Z,132.13
2023-11-12T20:02:40.108Z,122.13
2023-11-12T20:05:08.169Z,100.95
2023-11-12T20:07:35.149Z,110.80
2023-11-12T20:10:04.037Z,143.07
2023-11-12T20:12:31.182Z,117.77
2023-11-12T20:14:58.163Z,99.97
2023-11-12T20:17:25.041Z,94.80
2023-11-12T20:19:52.116Z,81.53
2023-11-12T20:22:19.381Z,69.40
2023-11-12T20:24:47.373Z,56.53
2023-11-12T20:27:16.640Z,52.42
2023-11-12T20:29:44.917Z,48.53
2023-11-12T20:32:16.710Z,49.20
2023-11-12T20:34:46.970Z,43.10
2023-11-12T20:37:15.037Z,45.35
2023-11-12T20:39:42.259Z,47.35
2023-11-12T20:42:10.776Z,39.78
2023-11-12T20:44:40.934Z,43.30
2023-11-12T20:47:09.161Z,45.22
2023-11-12T20:49:36.287Z,51.72
2023-11-12T20:52:03.551Z,64.95
2023-11-12T20:54:30.535Z,64.63
2023-11-12T20:56:57.466Z,75.95
2023-11-12T20:59:28.220Z,71.20
2023-11-12T21:01:55.836Z,77.30
2023-11-12T21:04:22.973Z,59.47
2023-11-12T21:06:49.985Z,50.58
2023-11-12T21:09:16.960Z,49.03
2023-11-12T21:11:48.467Z,51.38
2023-11-12T21:14:16.512Z,45.88
2023-11-12T21:16:44.659Z,44.30
2023-11-12T21:19:11.892Z,43.08
2023-11-12T21:21:41.811Z,38.72
2023-11-12T21:26:38.475Z,36.33
2023-11-12T21:29:05.592Z,45.75
2023-11-12T21:31:32.667Z,41.53
2023-11-12T21:33:59.884Z,42.42
2023-11-12T21:36:27.649Z,42.65
2023-11-12T21:38:54.531Z,38.55
2023-11-12T21:41:21.482Z,38.15
2023-11-12T21:43:48.614Z,39.25
2023-11-12T21:46:17.147Z,38.60
2023-11-12T21:48:44.460Z,40.92
2023-11-12T21:51:11.643Z,36.45
2023-11-12T21:53:39.144Z,35.90
2023-11-12T21:56:08.919Z,33.67
2023-11-12T21:58:36.660Z,41.25
2023-11-12T22:01:03.928Z,48.35
2023-11-12T22:03:31.342Z,59.08
2023-11-12T22:05:58.277Z,60.28
2023-11-12T22:08:25.127Z,59.75
2023-11-12T22:10:52.142Z,60.80
2023-11-12T22:13:20.059Z,55.78
2023-11-12T22:15:49.207Z,44.45
2023-11-12T22:18:16.271Z,41.65
2023-11-12T22:20:43.456Z,43.83
2023-11-12T22:23:12.383Z,45.40
2023-11-12T22:25:40.367Z,42.70
2023-11-12T22:28:07.926Z,42.00
2023-11-12T22:30:34.964Z,50.28
2023-11-12T22:33:01.913Z,50.13
2023-11-12T22:35:29.052Z,47.53
2023-11-12T22:37:56.283Z,45.35
2023-11-12T22:40:24.818Z,50.53
2023-11-12T22:42:53.708Z,50.90
2023-11-12T22:45:21.100Z,50.17
2023-11-12T22:47:48.434Z,44.30
2023-11-12T22:50:18.589Z,42.58
2023-11-12T22:52:45.839Z,45.42
2023-11-12T22:55:13.479Z,36.20
2023-11-12T22:57:41.507Z,38.17
2023-11-12T23:00:42.239Z,31.63
2023-11-12T23:03:12.175Z,36.03
2023-11-12T23:05:39.401Z,37.70
2023-11-12T23:08:08.915Z,38.15
2023-11-12T23:10:36.761Z,32.30
2023-11-12T23:13:04.688Z,31.63
2023-11-12T23:15:34.757Z,28.90
2023-11-12T23:18:02.153Z,26.80
2023-11-12T23:20:29.750Z,21.33
2023-11-12T23:22:56.802Z,28.70
2023-11-12T23:25:24.016Z,31.40
2023-11-12T23:27:50.994Z,34.85
2023-11-12T23:30:18.647Z,40.33
2023-11-12T23:32:46.156Z,45.08
2023-11-12T23:35:13.221Z,47.38
2023-11-12T23:37:40.133Z,33.22
2023-11-12T23:40:08.603Z,25.50
2023-11-12T23:42:35.720Z,25.10
2023-11-12T23:45:02.966Z,25.80
2023-11-12T23:47:30.099Z,24.00
2023-11-12T23:49:57.031Z,19.85
2023-11-12T23:52:24.329Z,18.60
2023-11-12T23:54:51.283Z,15.85
2023-11-12T23:57:18.506Z,15.93
2023-11-12T23:59:46.127Z,15.63
